Time;durP1;ratioP1;P1;durP2;ratioP2;P2;SDS_P1;SDS_P2;PMS_P1;PMS_P2;Temp;Humidity;BMP_temperature;BMP_pressure;BME280_temperature;BME280_humidity;BME280_pressure;Samples;Min_cycle;Max_cycle;Signal;HPM_P1;HPM_P2
2022/03/23 00:01:38;;;;;;;116.50;57.10;;;;;;;;;;4981286;27;102663;-71
2022/03/23 00:04:08;;;;;;;127.63;59.60;;;;;;;;;;5015132;27;100135;-71
2022/03/23 00:06:35;;;;;;;110.22;56.05;;;;;;;;;;5015516;27;100147;-71
2022/03/23 00:09:02;;;;;;;112.82;60.90;;;;;;;;;;5032450;27;100231;-71
2022/03/23 00:11:29;;;;;;;119.25;58.55;;;;;;;;;;5015072;27;100610;-71
2022/03/23 00:13:56;;;;;;;112.60;57.80;;;;;;;;;;5012472;27;100084;-72
2022/03/23 00:16:23;;;;;;;106.25;52.53;;;;;;;;;;5033082;27;100093;-71
2022/03/23 00:18:50;;;;;;;109.03;58.40;;;;;;;;;;5014441;27;100178;-71
2022/03/23 00:21:16;;;;;;;94.10;50.08;;;;;;;;;;5032369;27;100597;-72
2022/03/23 00:23:43;;;;;;;102.82;53.65;;;;;;;;;;4998737;27;100650;-72
2022/03/23 00:26:12;;;;;;;102.53;48.58;;;;;;;;;;5014575;27;100060;-72
2022/03/23 00:28:39;;;;;;;106.45;55.03;;;;;;;;;;5014301;27;100920;-71
2022/03/23 00:31:08;;;;;;;105.90;53.20;;;;;;;;;;5014022;27;101225;-71
2022/03/23 00:33:36;;;;;;;102.45;50.42;;;;;;;;;;5032546;27;100046;-72
2022/03/23 00:36:03;;;;;;;99.00;48.47;;;;;;;;;;4982184;27;100056;-71
2022/03/23 00:38:30;;;;;;;111.93;54.30;;;;;;;;;;5013191;27;100736;-71
2022/03/23 00:40:57;;;;;;;107.15;53.75;;;;;;;;;;4997832;27;100602;-73
2022/03/23 00:43:24;;;;;;;91.95;47.33;;;;;;;;;;5014099;27;100205;-71
2022/03/23 00:45:51;;;;;;;89.82;46.63;;;;;;;;;;4998238;28;100059;-71
2022/03/23 00:48:18;;;;;;;102.88;51.70;;;;;;;;;;4997606;27;100337;-71
2022/03/23 00:50:45;;;;;;;106.85;53.92;;;;;;;;;;4997241;27;101710;-71
2022/03/23 00:53:12;;;;;;;95.20;46.67;;;;;;;;;;5031617;27;99986;-71
2022/03/23 00:55:42;;;;;;;99.85;55.50;;;;;;;;;;4981743;27;100088;-71
2022/03/23 00:58:09;;;;;;;94.53;52.08;;;;;;;;;;5013674;27;100206;-71
2022/03/23 01:00:36;;;;;;;99.38;51.90;;;;;;;;;;5014401;27;100605;-71
2022/03/23 01:03:04;;;;;;;96.40;50.65;;;;;;;;;;5014064;27;100146;-73
2022/03/23 01:05:33;;;;;;;98.05;50.05;;;;;;;;;;4998162;27;100064;-71
2022/03/23 01:08:00;;;;;;;104.00;50.67;;;;;;;;;;4996797;27;100558;-71
2022/03/23 01:10:27;;;;;;;104.53;53.58;;;;;;;;;;4997192;27;100608;-71
2022/03/23 01:12:54;;;;;;;105.85;51.63;;;;;;;;;;4997501;27;100200;-71
2022/03/23 01:15:21;;;;;;;108.18;55.50;;;;;;;;;;5049925;27;99986;-71
2022/03/23 01:17:49;;;;;;;99.40;49.35;;;;;;;;;;5002665;27;101109;-71
2022/03/23 01:20:17;;;;;;;101.38;51.45;;;;;;;;;;4996043;27;100998;-71
2022/03/23 01:22:44;;;;;;;90.05;44.72;;;;;;;;;;4996755;27;100338;-72
2022/03/23 01:25:15;;;;;;;101.68;49.38;;;;;;;;;;4997427;27;100232;-71
2022/03/23 01:27:42;;;;;;;71.57;37.78;;;;;;;;;;4996138;27;100230;-71
2022/03/23 01:30:11;;;;;;;85.13;43.90;;;;;;;;;;5000456;27;103660;-72
2022/03/23 01:32:38;;;;;;;84.57;42.15;;;;;;;;;;5017067;27;100119;-71
2022/03/23 01:35:07;;;;;;;84.20;46.28;;;;;;;;;;4980080;27;100081;-72
2022/03/23 01:37:34;;;;;;;73.22;38.88;;;;;;;;;;4996344;27;100180;-71
2022/03/23 01:40:06;;;;;;;76.88;39.30;;;;;;;;;;4995274;27;100682;-72
2022/03/23 01:42:36;;;;;;;62.55;34.78;;;;;;;;;;4978595;27;100259;-71
2022/03/23 01:45:04;;;;;;;71.13;37.08;;;;;;;;;;4980027;27;100185;-72
2022/03/23 01:47:31;;;;;;;63.83;32.55;;;;;;;;;;4997696;27;100822;-71
2022/03/23 01:49:58;;;;;;;55.60;29.67;;;;;;;;;;5003255;27;100606;-71
2022/03/23 01:52:27;;;;;;;50.92;28.83;;;;;;;;;;5014154;27;101675;-71
2022/03/23 01:54:54;;;;;;;60.83;29.02;;;;;;;;;;4996062;27;100090;-72
2022/03/23 01:57:21;;;;;;;53.97;29.55;;;;;;;;;;5005889;27;100408;-71
2022/03/23 01:59:48;;;;;;;44.10;24.35;;;;;;;;;;5032573;27;100660;-71
2022/03/23 02:02:17;;;;;;;48.15;24.38;;;;;;;;;;5000104;27;100264;-71
2022/03/23 02:05:03;;;;;;;40.60;20.77;;;;;;;;;;5022459;27;100162;-71
2022/03/23 02:07:30;;;;;;;43.65;21.73;;;;;;;;;;5018511;27;100512;-71
2022/03/23 02:09:57;;;;;;;37.88;19.17;;;;;;;;;;4998994;27;100607;-71
2022/03/23 02:12:43;;;;;;;40.47;20.90;;;;;;;;;;5047580;27;100085;-71
2022/03/23 02:15:12;;;;;;;36.30;18.67;;;;;;;;;;5015425;27;100087;-71
2022/03/23 02:17:39;;;;;;;36.47;18.45;;;;;;;;;;4997698;27;100155;-72
2022/03/23 02:20:08;;;;;;;36.40;19.02;;;;;;;;;;5015697;27;100588;-71
2022/03/23 02:22:35;;;;;;;36.20;17.40;;;;;;;;;;4999423;27;100221;-71
2022/03/23 02:25:02;;;;;;;33.08;18.45;;;;;;;;;;5016089;27;100657;-71
2022/03/23 02:27:29;;;;;;;30.17;15.15;;;;;;;;;;4998885;27;100251;-71
2022/03/23 02:29:57;;;;;;;30.50;17.23;;;;;;;;;;5015583;27;100771;-75
2022/03/23 02:32:24;;;;;;;35.63;19.38;;;;;;;;;;5033687;27;100195;-71
2022/03/23 02:34:51;;;;;;;32.33;16.08;;;;;;;;;;5033359;27;100092;-72
2022/03/23 02:37:18;;;;;;;35.83;18.98;;;;;;;;;;4998696;27;100420;-72
2022/03/23 02:39:45;;;;;;;32.17;16.40;;;;;;;;;;5015857;27;101130;-72
2022/03/23 02:42:12;;;;;;;36.83;19.45;;;;;;;;;;4997627;27;100076;-72
2022/03/23 02:44:39;;;;;;;40.28;20.30;;;;;;;;;;5033348;27;100180;-72
2022/03/23 02:47:06;;;;;;;46.10;25.13;;;;;;;;;;5014448;27;100424;-71
2022/03/23 02:49:33;;;;;;;56.72;29.85;;;;;;;;;;5015638;27;100704;-71
2022/03/23 02:52:00;;;;;;;56.83;30.15;;;;;;;;;;5034207;27;100171;-71
2022/03/23 03:03:37;;;;;;;66.32;35.80;;;;;;;;;;4998477;28;100358;-71
2022/03/23 03:06:04;;;;;;;70.63;34.30;;;;;;;;;;5011604;28;100101;-71
2022/03/23 03:08:47;;;;;;;77.07;39.40;;;;;;;;;;5012094;28;100664;-71
2022/03/23 03:11:15;;;;;;;65.30;37.60;;;;;;;;;;4978912;28;100676;-71
2022/03/23 03:13:42;;;;;;;78.50;37.88;;;;;;;;;;4958058;28;100020;-71
2022/03/23 03:16:09;;;;;;;73.60;37.33;;;;;;;;;;4958620;28;100274;-71
2022/03/23 03:18:37;;;;;;;73.05;37.50;;;;;;;;;;4963443;28;102685;-72
2022/03/23 03:21:08;;;;;;;73.85;38.83;;;;;;;;;;5002776;28;100685;-71
2022/03/23 03:23:40;;;;;;;77.80;40.50;;;;;;;;;;4975550;28;100372;-72
2022/03/23 03:26:08;;;;;;;70.75;39.30;;;;;;;;;;4943769;28;100060;-72
2022/03/23 03:28:35;;;;;;;71.15;33.53;;;;;;;;;;4975272;28;101350;-71
2022/03/23 03:31:03;;;;;;;62.67;33.50;;;;;;;;;;4943368;28;100762;-72
2022/03/23 03:33:30;;;;;;;59.22;31.02;;;;;;;;;;4958114;28;99995;-71
2022/03/23 03:35:56;;;;;;;58.88;31.00;;;;;;;;;;4960099;28;99843;-71
2022/03/23 03:38:23;;;;;;;56.05;28.65;;;;;;;;;;4959057;28;100165;-71
2022/03/23 03:40:51;;;;;;;58.83;28.23;;;;;;;;;;4940602;28;100580;-72
2022/03/23 03:43:18;;;;;;;56.92;27.27;;;;;;;;;;4959845;28;100579;-72
2022/03/23 03:45:45;;;;;;;63.95;32.33;;;;;;;;;;4959678;28;100062;-71
2022/03/23 03:48:13;;;;;;;61.15;32.30;;;;;;;;;;4958917;28;100235;-72
2022/03/23 03:50:39;;;;;;;63.72;30.90;;;;;;;;;;4975964;28;100538;-71
2022/03/23 03:53:09;;;;;;;64.55;34.10;;;;;;;;;;4979133;28;100062;-71
2022/03/23 03:55:36;;;;;;;60.58;29.48;;;;;;;;;;4963612;28;99890;-72
2022/03/23 03:58:04;;;;;;;63.42;32.63;;;;;;;;;;4995090;28;100328;-73
2022/03/23 04:00:31;;;;;;;53.50;26.85;;;;;;;;;;4978914;28;101971;-72
2022/03/23 04:02:58;;;;;;;59.80;30.10;;;;;;;;;;4989331;28;100274;-70
2022/03/23 04:05:25;;;;;;;61.78;30.65;;;;;;;;;;5010432;28;100012;-73
2022/03/23 04:07:52;;;;;;;61.90;32.90;;;;;;;;;;5012711;28;100413;-70
2022/03/23 04:10:19;;;;;;;53.65;29.35;;;;;;;;;;5028209;28;100697;-70
2022/03/23 04:12:46;;;;;;;65.05;32.20;;;;;;;;;;5013033;28;100223;-70
2022/03/23 04:15:14;;;;;;;66.40;30.85;;;;;;;;;;4995431;28;100124;-71
2022/03/23 04:17:41;;;;;;;57.17;29.85;;;;;;;;;;4994991;28;100605;-71
2022/03/23 04:20:09;;;;;;;59.75;29.30;;;;;;;;;;5005960;28;101409;-71
2022/03/23 04:22:38;;;;;;;62.40;34.65;;;;;;;;;;5013325;27;100275;-71
2022/03/23 04:25:10;;;;;;;66.25;32.13;;;;;;;;;;5015350;28;99927;-71
2022/03/23 04:27:50;;;;;;;55.97;29.80;;;;;;;;;;5014041;27;100220;-71
2022/03/23 04:30:17;;;;;;;46.38;24.73;;;;;;;;;;4998369;27;100622;-71
2022/03/23 04:32:45;;;;;;;43.20;22.58;;;;;;;;;;5032220;27;100060;-72
2022/03/23 04:35:12;;;;;;;52.58;23.40;;;;;;;;;;5015270;27;100093;-72
2022/03/23 04:37:40;;;;;;;46.38;23.92;;;;;;;;;;4981824;27;100249;-71
2022/03/23 04:40:07;;;;;;;41.58;22.67;;;;;;;;;;5014886;28;100807;-71
2022/03/23 04:42:35;;;;;;;42.15;21.85;;;;;;;;;;4998280;27;100250;-71
2022/03/23 04:45:02;;;;;;;42.67;22.77;;;;;;;;;;4998839;27;102751;-71
2022/03/23 04:47:30;;;;;;;48.55;22.20;;;;;;;;;;4998168;28;100166;-71
2022/03/23 04:49:56;;;;;;;43.58;20.95;;;;;;;;;;5031774;27;100744;-72
2022/03/23 04:52:23;;;;;;;46.28;22.35;;;;;;;;;;4998009;27;100070;-71
2022/03/23 04:54:50;;;;;;;44.45;23.15;;;;;;;;;;4981370;28;100124;-71
2022/03/23 04:57:18;;;;;;;41.75;22.58;;;;;;;;;;5012971;27;100293;-71
2022/03/23 04:59:45;;;;;;;38.38;19.85;;;;;;;;;;4997834;27;100658;-71
2022/03/23 05:02:12;;;;;;;38.20;19.67;;;;;;;;;;4981249;27;99950;-71
2022/03/23 05:04:39;;;;;;;42.45;20.55;;;;;;;;;;4997613;28;100058;-71
2022/03/23 05:07:06;;;;;;;49.50;25.35;;;;;;;;;;5031986;27;100176;-71
2022/03/23 05:09:33;;;;;;;49.83;24.35;;;;;;;;;;4997136;27;103043;-71
2022/03/23 05:12:00;;;;;;;39.55;20.25;;;;;;;;;;5032696;27;99999;-71
2022/03/23 05:14:26;;;;;;;40.72;21.42;;;;;;;;;;5031008;27;100132;-70
2022/03/23 05:16:53;;;;;;;40.78;20.52;;;;;;;;;;4997557;27;100231;-70
2022/03/23 05:19:20;;;;;;;40.08;19.90;;;;;;;;;;5014066;27;100581;-71
2022/03/23 05:21:47;;;;;;;35.70;18.52;;;;;;;;;;5016434;27;100094;-72
2022/03/23 05:24:14;;;;;;;36.38;20.10;;;;;;;;;;5014535;27;100621;-72
2022/03/23 05:26:41;;;;;;;31.63;17.92;;;;;;;;;;5031866;27;100841;-71
2022/03/23 05:29:09;;;;;;;43.83;22.23;;;;;;;;;;5013841;28;100683;-71
2022/03/23 05:31:36;;;;;;;43.60;24.95;;;;;;;;;;5014004;27;100158;-71
2022/03/23 05:34:03;;;;;;;49.30;25.77;;;;;;;;;;5002475;27;100132;-71
2022/03/23 05:36:30;;;;;;;41.65;23.83;;;;;;;;;;5013795;28;100219;-71
2022/03/23 05:38:57;;;;;;;44.72;22.95;;;;;;;;;;5033754;27;100534;-71
2022/03/23 05:41:25;;;;;;;39.95;21.95;;;;;;;;;;5016802;27;100540;-71
2022/03/23 05:43:52;;;;;;;36.55;22.27;;;;;;;;;;5017953;28;100025;-71
2022/03/23 05:46:18;;;;;;;44.97;25.50;;;;;;;;;;5016913;27;100244;-71
2022/03/23 05:48:45;;;;;;;46.70;24.70;;;;;;;;;;5015833;27;100947;-72
2022/03/23 05:51:12;;;;;;;46.90;26.85;;;;;;;;;;5017486;27;99800;-71
2022/03/23 05:53:40;;;;;;;48.65;26.80;;;;;;;;;;5017669;28;99944;-72
2022/03/23 05:56:07;;;;;;;49.58;26.85;;;;;;;;;;5054282;27;100512;-73
2022/03/23 05:58:34;;;;;;;45.72;23.38;;;;;;;;;;5018810;27;101101;-71
2022/03/23 06:01:02;;;;;;;38.67;21.63;;;;;;;;;;5035491;27;100405;-72
2022/03/23 06:03:30;;;;;;;43.33;20.83;;;;;;;;;;5036487;27;100150;-72
2022/03/23 06:05:57;;;;;;;36.10;20.65;;;;;;;;;;5036220;27;100601;-72
2022/03/23 06:08:24;;;;;;;34.30;17.45;;;;;;;;;;5003795;27;100562;-71
2022/03/23 06:10:51;;;;;;;38.75;18.08;;;;;;;;;;5022654;28;99916;-71
2022/03/23 06:13:18;;;;;;;30.20;17.75;;;;;;;;;;5000347;27;100049;-71
2022/03/23 06:15:46;;;;;;;32.58;15.82;;;;;;;;;;4966740;27;101919;-71
2022/03/23 06:18:13;;;;;;;29.63;14.60;;;;;;;;;;4983797;28;101249;-71
2022/03/23 06:20:39;;;;;;;24.10;15.35;;;;;;;;;;5000160;27;100207;-71
2022/03/23 06:23:07;;;;;;;32.63;15.57;;;;;;;;;;5001052;27;99936;-71
2022/03/23 06:25:35;;;;;;;27.52;14.40;;;;;;;;;;5000168;27;100275;-71
2022/03/23 06:28:02;;;;;;;33.60;15.45;;;;;;;;;;5000209;28;100579;-71
2022/03/23 06:30:29;;;;;;;34.88;15.05;;;;;;;;;;5033945;27;100125;-71
2022/03/23 06:32:55;;;;;;;26.17;14.77;;;;;;;;;;4983505;27;100117;-71
2022/03/23 06:35:24;;;;;;;25.88;14.02;;;;;;;;;;5034439;27;100728;-71
2022/03/23 06:37:50;;;;;;;26.85;14.20;;;;;;;;;;5016270;27;100561;-71
2022/03/23 06:40:18;;;;;;;30.17;15.30;;;;;;;;;;5034502;27;100150;-71
2022/03/23 06:42:50;;;;;;;23.70;13.43;;;;;;;;;;5034641;27;99931;-72
2022/03/23 06:45:17;;;;;;;27.20;14.57;;;;;;;;;;5034294;27;100882;-72
2022/03/23 06:47:43;;;;;;;26.40;13.60;;;;;;;;;;5034176;27;100617;-74
2022/03/23 06:50:10;;;;;;;28.30;14.45;;;;;;;;;;5015026;27;100049;-72
2022/03/23 06:52:37;;;;;;;25.33;13.98;;;;;;;;;;5000064;28;100029;-72
2022/03/23 06:55:06;;;;;;;28.23;14.70;;;;;;;;;;4999385;27;100250;-73
2022/03/23 06:57:33;;;;;;;29.02;14.32;;;;;;;;;;5015499;27;100530;-71
2022/03/23 07:00:01;;;;;;;32.45;15.15;;;;;;;;;;4999937;27;99990;-71
2022/03/23 07:02:28;;;;;;;29.83;14.90;;;;;;;;;;5016244;28;100110;-71
2022/03/23 07:04:55;;;;;;;32.85;16.98;;;;;;;;;;4999257;27;100775;-71
2022/03/23 07:07:21;;;;;;;29.05;15.65;;;;;;;;;;5034152;27;100621;-71
2022/03/23 07:09:48;;;;;;;36.20;16.23;;;;;;;;;;5000124;27;100176;-71
2022/03/23 07:12:17;;;;;;;32.15;16.65;;;;;;;;;;5017017;28;99982;-71
2022/03/23 07:14:44;;;;;;;31.73;15.82;;;;;;;;;;5014232;27;100261;-72
2022/03/23 07:17:12;;;;;;;28.00;15.32;;;;;;;;;;5014392;27;100620;-71
2022/03/23 07:19:39;;;;;;;30.23;14.85;;;;;;;;;;5032454;27;100169;-72
2022/03/23 07:22:06;;;;;;;26.77;14.15;;;;;;;;;;5034527;27;102386;-71
2022/03/23 07:24:32;;;;;;;31.23;14.80;;;;;;;;;;5032380;27;100188;-71
2022/03/23 07:27:04;;;;;;;29.70;14.07;;;;;;;;;;5032245;27;100555;-71
2022/03/23 07:29:47;;;;;;;26.50;14.82;;;;;;;;;;5032397;27;100088;-71
2022/03/23 07:32:14;;;;;;;36.20;15.30;;;;;;;;;;5032616;27;100079;-72
2022/03/23 07:34:41;;;;;;;27.55;14.80;;;;;;;;;;4999358;27;100290;-71
2022/03/23 07:37:08;;;;;;;23.27;13.40;;;;;;;;;;5033580;27;102723;-71
2022/03/23 07:39:35;;;;;;;29.17;13.70;;;;;;;;;;5016164;27;100098;-71
2022/03/23 07:42:02;;;;;;;27.40;15.13;;;;;;;;;;5016295;27;100133;-71
2022/03/23 07:44:32;;;;;;;27.13;14.23;;;;;;;;;;5014557;27;101799;-70
2022/03/23 07:47:00;;;;;;;28.58;14.38;;;;;;;;;;5033511;27;100725;-71
2022/03/23 07:49:27;;;;;;;24.30;13.93;;;;;;;;;;5033281;27;100057;-71
2022/03/23 07:51:54;;;;;;;31.13;13.70;;;;;;;;;;4981945;27;100059;-72
2022/03/23 07:54:20;;;;;;;28.33;13.57;;;;;;;;;;5015204;27;101364;-71
2022/03/23 07:56:47;;;;;;;25.75;14.02;;;;;;;;;;5032643;27;101511;-72
2022/03/23 07:59:14;;;;;;;24.05;14.00;;;;;;;;;;5033026;27;100084;-73
2022/03/23 08:01:41;;;;;;;28.33;13.40;;;;;;;;;;5015657;27;100241;-71
2022/03/23 08:04:08;;;;;;;29.38;13.25;;;;;;;;;;5032687;27;101508;-71
2022/03/23 08:06:35;;;;;;;24.90;12.32;;;;;;;;;;5015345;27;100629;-74
2022/03/23 08:09:03;;;;;;;24.58;11.65;;;;;;;;;;5015149;27;99912;-72
2022/03/23 08:11:32;;;;;;;28.35;11.95;;;;;;;;;;4982287;27;100512;-72
2022/03/23 08:13:58;;;;;;;23.63;11.38;;;;;;;;;;5033105;27;100222;-71
2022/03/23 08:16:25;;;;;;;28.00;12.68;;;;;;;;;;4998405;27;100778;-72
2022/03/23 08:18:52;;;;;;;25.25;12.25;;;;;;;;;;5014189;27;100115;-72
2022/03/23 08:21:21;;;;;;;22.92;11.90;;;;;;;;;;5014658;27;100103;-72
2022/03/23 08:23:48;;;;;;;25.25;12.13;;;;;;;;;;5014774;28;100277;-72
2022/03/23 08:26:15;;;;;;;20.38;10.90;;;;;;;;;;5032981;27;100748;-72
2022/03/23 08:28:43;;;;;;;22.65;10.95;;;;;;;;;;5019651;27;100081;-72
2022/03/23 08:31:10;;;;;;;27.30;11.93;;;;;;;;;;5002216;27;100124;-72
2022/03/23 08:33:39;;;;;;;20.60;10.88;;;;;;;;;;5002667;27;100236;-72
2022/03/23 08:36:07;;;;;;;18.98;10.57;;;;;;;;;;4996794;27;101246;-72
2022/03/23 08:38:34;;;;;;;21.00;10.82;;;;;;;;;;4980839;27;100066;-72
2022/03/23 08:41:01;;;;;;;19.48;10.07;;;;;;;;;;4998172;28;100022;-72
2022/03/23 08:43:28;;;;;;;20.40;9.95;;;;;;;;;;5014518;27;100494;-72
2022/03/23 08:45:59;;;;;;;19.02;9.40;;;;;;;;;;4999004;27;100588;-72
2022/03/23 08:48:26;;;;;;;19.13;9.52;;;;;;;;;;5015253;28;100158;-72
2022/03/23 08:50:54;;;;;;;19.00;9.52;;;;;;;;;;5015571;28;100198;-72
2022/03/23 08:53:21;;;;;;;22.48;8.70;;;;;;;;;;5014301;27;102964;-72
2022/03/23 08:55:47;;;;;;;19.50;9.13;;;;;;;;;;5031826;27;101775;-72
2022/03/23 08:58:14;;;;;;;17.92;8.93;;;;;;;;;;4998082;27;100542;-72
2022/03/23 09:00:44;;;;;;;16.15;9.23;;;;;;;;;;5032602;27;100037;-72
2022/03/23 09:03:11;;;;;;;16.92;8.20;;;;;;;;;;5014148;27;100180;-72
2022/03/23 09:05:39;;;;;;;19.50;9.55;;;;;;;;;;5032238;27;100584;-72
2022/03/23 09:08:07;;;;;;;17.13;9.70;;;;;;;;;;5003677;27;100196;-72
2022/03/23 09:10:34;;;;;;;14.43;8.55;;;;;;;;;;5032028;27;100670;-73
2022/03/23 09:13:01;;;;;;;12.60;7.78;;;;;;;;;;4996652;27;100259;-72
2022/03/23 09:15:28;;;;;;;11.48;7.57;;;;;;;;;;5030903;27;100717;-72
2022/03/23 09:18:01;;;;;;;15.82;8.23;;;;;;;;;;5013515;28;100084;-72
2022/03/23 09:20:28;;;;;;;15.15;7.75;;;;;;;;;;5012992;27;100488;-73
2022/03/23 09:22:59;;;;;;;18.17;9.02;;;;;;;;;;5029448;27;100384;-72
2022/03/23 09:25:25;;;;;;;20.92;9.75;;;;;;;;;;5013674;27;100581;-72
2022/03/23 09:27:52;;;;;;;22.13;9.88;;;;;;;;;;5049818;27;100089;-72
2022/03/23 09:30:19;;;;;;;20.42;9.35;;;;;;;;;;5013002;27;100158;-73
2022/03/23 09:32:46;;;;;;;20.20;8.82;;;;;;;;;;5012167;27;100383;-72
2022/03/23 09:35:14;;;;;;;14.05;7.30;;;;;;;;;;5031165;27;100706;-72
2022/03/23 09:37:47;;;;;;;12.80;6.60;;;;;;;;;;4997949;27;100652;-72
2022/03/23 09:40:27;;;;;;;12.05;5.78;;;;;;;;;;5015744;27;100117;-72
2022/03/23 09:43:02;;;;;;;9.63;5.45;;;;;;;;;;5014761;27;100158;-71
2022/03/23 09:48:09;;;;;;;9.13;5.15;;;;;;;;;;4982180;28;100037;-71
2022/03/23 09:50:37;;;;;;;9.02;4.93;;;;;;;;;;5035128;27;100411;-72
2022/03/23 09:53:04;;;;;;;7.55;4.72;;;;;;;;;;4991866;27;100316;-72
2022/03/23 09:55:31;;;;;;;11.32;4.57;;;;;;;;;;5013374;27;100609;-72
2022/03/23 09:58:00;;;;;;;7.97;4.55;;;;;;;;;;4999941;27;100163;-72
2022/03/23 10:00:37;;;;;;;6.75;4.15;;;;;;;;;;5039793;27;100139;-73
2022/03/23 10:03:13;;;;;;;8.68;5.15;;;;;;;;;;4999906;28;100301;-72
2022/03/23 10:05:46;;;;;;;9.32;4.95;;;;;;;;;;5013430;27;100581;-72
2022/03/23 10:08:41;;;;;;;7.03;4.65;;;;;;;;;;5031833;27;100046;-72
2022/03/23 10:11:39;;;;;;;7.03;4.25;;;;;;;;;;5013749;27;100082;-72
2022/03/23 10:14:36;;;;;;;7.75;4.05;;;;;;;;;;5034527;27;100220;-72
2022/03/23 10:17:40;;;;;;;8.20;4.25;;;;;;;;;;5031261;27;101215;-72
2022/03/23 10:20:11;;;;;;;9.48;5.60;;;;;;;;;;5030430;27;100075;-72
2022/03/23 10:22:46;;;;;;;6.88;4.57;;;;;;;;;;5031467;27;99972;-73
2022/03/23 10:25:13;;;;;;;8.05;5.03;;;;;;;;;;5002923;27;100278;-72
2022/03/23 10:27:40;;;;;;;7.40;4.65;;;;;;;;;;4983133;27;100580;-72
2022/03/23 10:30:07;;;;;;;5.88;4.45;;;;;;;;;;5021148;27;100224;-72
2022/03/23 10:32:37;;;;;;;7.45;4.85;;;;;;;;;;5020071;28;100089;-71
2022/03/23 10:35:09;;;;;;;10.20;5.18;;;;;;;;;;5014126;27;103061;-71
2022/03/23 10:37:36;;;;;;;6.78;4.47;;;;;;;;;;5000399;27;101804;-71
2022/03/23 10:40:10;;;;;;;8.93;4.60;;;;;;;;;;5016350;27;100006;-70
2022/03/23 10:42:39;;;;;;;8.18;4.90;;;;;;;;;;5000471;28;99972;-71
2022/03/23 10:45:12;;;;;;;8.80;4.90;;;;;;;;;;5007482;27;102267;-71
2022/03/23 10:47:42;;;;;;;9.23;5.03;;;;;;;;;;5033810;27;101130;-71
2022/03/23 10:50:20;;;;;;;6.95;4.68;;;;;;;;;;5041905;27;100166;-71
2022/03/23 10:52:53;;;;;;;8.05;4.55;;;;;;;;;;5034521;27;100464;-71
2022/03/23 10:55:21;;;;;;;7.05;4.50;;;;;;;;;;5033702;27;100243;-72
2022/03/23 10:57:51;;;;;;;6.45;4.43;;;;;;;;;;5037685;27;101834;-71
2022/03/23 11:00:34;;;;;;;7.40;4.05;;;;;;;;;;5037595;27;100577;-71
2022/03/23 11:03:02;;;;;;;6.20;3.80;;;;;;;;;;5038856;27;100308;-71
2022/03/23 11:05:33;;;;;;;6.53;4.18;;;;;;;;;;5015534;27;100306;-70
2022/03/23 11:08:13;;;;;;;6.60;4.10;;;;;;;;;;5046333;27;101401;-71
2022/03/23 11:16:24;;;;;;;10.18;5.28;;;;;;;;;;5007231;27;100781;-72
2022/03/23 11:19:24;;;;;;;7.97;4.80;;;;;;;;;;5000214;27;100972;-72
2022/03/23 11:22:01;;;;;;;9.38;5.43;;;;;;;;;;5016851;27;100079;-72
2022/03/23 11:24:30;;;;;;;9.05;5.78;;;;;;;;;;5036083;27;100044;-72
2022/03/23 11:26:57;;;;;;;10.60;6.13;;;;;;;;;;5012565;27;100408;-72
2022/03/23 11:29:24;;;;;;;8.05;5.70;;;;;;;;;;5032819;27;100725;-72
2022/03/23 11:31:54;;;;;;;8.88;6.00;;;;;;;;;;4998405;27;100143;-71
2022/03/23 11:34:23;;;;;;;8.95;5.60;;;;;;;;;;5017239;27;100794;-72
2022/03/23 11:36:54;;;;;;;8.18;5.00;;;;;;;;;;4997632;27;100264;-73
2022/03/23 11:39:22;;;;;;;8.55;5.25;;;;;;;;;;4981888;28;101601;-73
2022/03/23 11:41:51;;;;;;;8.63;5.35;;;;;;;;;;5015792;27;100166;-73
2022/03/23 11:44:22;;;;;;;9.77;5.15;;;;;;;;;;5036264;27;100107;-72
2022/03/23 11:46:49;;;;;;;10.60;5.50;;;;;;;;;;5015912;27;100300;-73
2022/03/23 11:49:20;;;;;;;7.35;5.00;;;;;;;;;;5015350;27;100574;-74
2022/03/23 11:52:05;;;;;;;11.35;5.82;;;;;;;;;;4998105;27;100181;-73
2022/03/23 11:57:54;;;;;;;8.23;5.13;;;;;;;;;;5016916;27;100412;-71
2022/03/23 12:00:21;;;;;;;10.82;5.95;;;;;;;;;;5014087;27;100712;-73
2022/03/23 12:02:56;;;;;;;8.77;5.38;;;;;;;;;;4983837;27;100213;-74
2022/03/23 12:05:28;;;;;;;9.40;5.80;;;;;;;;;;5015545;27;100154;-73
2022/03/23 12:07:56;;;;;;;7.93;5.40;;;;;;;;;;5042230;27;100351;-74
2022/03/23 12:10:28;;;;;;;9.52;5.20;;;;;;;;;;5017814;27;100572;-72
2022/03/23 12:12:55;;;;;;;11.48;5.38;;;;;;;;;;5014296;27;99984;-72
2022/03/23 12:15:24;;;;;;;8.95;6.10;;;;;;;;;;5015129;27;100564;-72
2022/03/23 12:17:54;;;;;;;12.35;6.10;;;;;;;;;;5013787;27;101325;-74
2022/03/23 12:20:31;;;;;;;8.80;5.93;;;;;;;;;;5030604;27;101757;-73
2022/03/23 12:23:28;;;;;;;9.88;5.40;;;;;;;;;;5030685;27;100621;-73
2022/03/23 12:26:17;;;;;;;7.35;5.30;;;;;;;;;;5019180;27;100147;-73
2022/03/23 12:28:55;;;;;;;10.80;6.32;;;;;;;;;;5032637;27;101765;-73
2022/03/23 12:31:22;;;;;;;8.32;5.28;;;;;;;;;;5013855;27;100691;-72
2022/03/23 12:33:58;;;;;;;7.88;5.75;;;;;;;;;;5014895;27;100187;-72
2022/03/23 12:36:56;;;;;;;10.60;6.03;;;;;;;;;;5035618;27;100284;-72
2022/03/23 12:39:40;;;;;;;8.85;6.00;;;;;;;;;;5017454;27;100375;-72
2022/03/23 12:42:15;;;;;;;8.27;5.35;;;;;;;;;;5013336;27;100649;-72
2022/03/23 12:44:41;;;;;;;8.55;4.85;;;;;;;;;;5034618;27;100039;-72
2022/03/23 12:47:12;;;;;;;10.68;5.28;;;;;;;;;;5014274;27;100327;-73
2022/03/23 12:58:12;;;;;;;12.30;5.45;;;;;;;;;;5004766;27;100022;-72
2022/03/23 13:00:44;;;;;;;9.27;5.80;;;;;;;;;;4999753;27;100772;-71
2022/03/23 13:03:11;;;;;;;9.00;5.25;;;;;;;;;;4989797;28;100624;-71
2022/03/23 13:06:01;;;;;;;9.50;5.78;;;;;;;;;;5006163;28;100743;-72
2022/03/23 13:08:30;;;;;;;11.00;5.35;;;;;;;;;;5011503;28;100201;-72
2022/03/23 13:10:58;;;;;;;9.43;5.47;;;;;;;;;;5009235;28;100264;-72
2022/03/23 13:13:26;;;;;;;8.75;5.20;;;;;;;;;;5010005;28;100778;-73
2022/03/23 13:15:54;;;;;;;10.48;5.47;;;;;;;;;;4993570;28;100083;-73
2022/03/23 13:18:27;;;;;;;7.43;5.40;;;;;;;;;;5008240;28;100091;-73
2022/03/23 13:20:56;;;;;;;7.47;5.70;;;;;;;;;;5006399;28;101774;-71
2022/03/23 13:23:25;;;;;;;10.88;6.35;;;;;;;;;;5011275;28;100708;-72
2022/03/23 13:26:07;;;;;;;9.13;5.38;;;;;;;;;;5011111;28;99987;-71
2022/03/23 13:28:38;;;;;;;10.63;6.25;;;;;;;;;;5011815;28;100232;-72
2022/03/23 13:31:09;;;;;;;7.90;5.00;;;;;;;;;;5003911;28;100224;-72
2022/03/23 13:33:43;;;;;;;7.68;5.65;;;;;;;;;;4980454;28;101147;-72
2022/03/23 13:36:11;;;;;;;8.23;5.32;;;;;;;;;;4989785;28;100212;-72
2022/03/23 13:38:40;;;;;;;7.63;4.97;;;;;;;;;;4992198;28;100384;-72
2022/03/23 13:43:52;;;;;;;8.35;5.15;;;;;;;;;;4989564;28;102159;-72
2022/03/23 13:46:23;;;;;;;7.70;5.43;;;;;;;;;;4956122;28;100193;-72
2022/03/23 13:49:01;;;;;;;10.35;5.32;;;;;;;;;;4956938;28;100162;-72
2022/03/23 13:51:34;;;;;;;7.90;5.20;;;;;;;;;;4956083;28;102651;-73
2022/03/23 13:54:02;;;;;;;11.00;5.03;;;;;;;;;;5026613;28;101098;-72
2022/03/23 13:56:31;;;;;;;8.15;5.20;;;;;;;;;;5009646;28;100182;-72
2022/03/23 13:58:58;;;;;;;9.25;5.45;;;;;;;;;;4961419;28;100069;-72
2022/03/23 14:01:25;;;;;;;9.15;5.18;;;;;;;;;;4996709;28;100793;-73
2022/03/23 14:04:03;;;;;;;8.40;5.18;;;;;;;;;;4997187;28;100524;-72
2022/03/23 14:06:30;;;;;;;7.00;5.28;;;;;;;;;;5030232;28;100142;-72
2022/03/23 14:08:58;;;;;;;9.00;5.28;;;;;;;;;;4996879;28;100105;-72
2022/03/23 14:14:32;;;;;;;8.02;5.25;;;;;;;;;;4980175;28;102528;-72
2022/03/23 14:17:03;;;;;;;10.73;6.20;;;;;;;;;;4997388;28;100160;-72
2022/03/23 14:19:32;;;;;;;9.60;5.55;;;;;;;;;;5015404;28;100048;-72
2022/03/23 14:22:04;;;;;;;12.38;5.93;;;;;;;;;;4997429;28;100816;-72
2022/03/23 14:24:33;;;;;;;11.50;5.90;;;;;;;;;;4981061;28;100953;-72
2022/03/23 14:27:22;;;;;;;7.22;5.07;;;;;;;;;;4980901;28;100195;-72
2022/03/23 14:29:58;;;;;;;8.82;5.25;;;;;;;;;;4985828;28;100263;-72
2022/03/23 14:32:29;;;;;;;8.00;5.63;;;;;;;;;;4957799;28;102923;-72
2022/03/23 14:34:56;;;;;;;8.35;5.13;;;;;;;;;;4977092;28;100834;-72
2022/03/23 14:37:50;;;;;;;9.98;5.30;;;;;;;;;;5013063;28;100046;-72
2022/03/23 14:40:37;;;;;;;8.15;4.93;;;;;;;;;;4973598;28;100141;-72
2022/03/23 14:43:06;;;;;;;10.15;5.47;;;;;;;;;;4960304;28;100880;-72
2022/03/23 14:45:43;;;;;;;7.88;5.32;;;;;;;;;;4976885;28;100674;-72
2022/03/23 14:48:26;;;;;;;12.85;5.63;;;;;;;;;;5000891;28;101153;-73
2022/03/23 14:50:55;;;;;;;9.13;5.30;;;;;;;;;;4994600;28;100246;-72
2022/03/23 14:53:25;;;;;;;8.57;6.03;;;;;;;;;;4993789;28;100301;-73
2022/03/23 14:55:53;;;;;;;8.80;5.40;;;;;;;;;;4976304;28;101539;-72
2022/03/23 14:58:31;;;;;;;8.20;5.45;;;;;;;;;;4960356;28;100120;-75
2022/03/23 15:01:05;;;;;;;9.20;5.75;;;;;;;;;;4974171;28;99931;-72
2022/03/23 15:03:34;;;;;;;8.35;4.90;;;;;;;;;;5004343;28;100513;-72